sensor_id;sensor_type;location;lat;lon;timestamp;P1;durP1;ratioP1;P2;durP2;ratioP2
18505;SDS011;9382;53.242;10.438;2023-09-12T00:00:43;13.43;;;8.90;;
18505;SDS011;9382;53.242;10.438;2023-09-12T00:03:11;15.87;;;8.47;;
18505;SDS011;9382;53.242;10.438;2023-09-12T00:05:38;13.90;;;9.20;;
18505;SDS011;9382;53.242;10.438;2023-09-12T00:08:05;15.80;;;9.57;;
18505;SDS011;9382;53.242;10.438;2023-09-12T00:10:35;14.27;;;9.37;;
18505;SDS011;9382;53.242;10.438;2023-09-12T00:13:02;13.00;;;9.47;;
18505;SDS011;9382;53.242;10.438;2023-09-12T00:15:29;16.70;;;10.40;;
18505;SDS011;9382;53.242;10.438;2023-09-12T00:17:56;16.63;;;9.10;;
18505;SDS011;9382;53.242;10.438;2023-09-12T00:20:24;17.93;;;10.47;;
18505;SDS011;9382;53.242;10.438;2023-09-12T00:22:51;16.37;;;11.23;;
18505;SDS011;9382;53.242;10.438;2023-09-12T00:25:19;18.80;;;12.63;;
18505;SDS011;9382;53.242;10.438;2023-09-12T00:27:47;13.03;;;9.90;;
18505;SDS011;9382;53.242;10.438;2023-09-12T00:30:14;19.23;;;10.90;;
18505;SDS011;9382;53.242;10.438;2023-09-12T00:32:41;18.43;;;11.40;;
18505;SDS011;9382;53.242;10.438;2023-09-12T00:35:08;21.37;;;12.10;;
18505;SDS011;9382;53.242;10.438;2023-09-12T00:37:36;16.03;;;11.43;;
18505;SDS011;9382;53.242;10.438;2023-09-12T00:40:03;19.67;;;11.83;;
18505;SDS011;9382;53.242;10.438;2023-09-12T00:42:31;20.23;;;13.40;;
18505;SDS011;9382;53.242;10.438;2023-09-12T00:44:57;20.03;;;13.10;;
18505;SDS011;9382;53.242;10.438;2023-09-12T00:47:24;14.57;;;10.70;;
18505;SDS011;9382;53.242;10.438;2023-09-12T00:49:53;15.17;;;11.13;;
18505;SDS011;9382;53.242;10.438;2023-09-12T00:52:22;17.77;;;11.93;;
18505;SDS011;9382;53.242;10.438;2023-09-12T00:54:52;19.47;;;12.07;;
18505;SDS011;9382;53.242;10.438;2023-09-12T00:57:19;18.77;;;11.80;;
18505;SDS011;9382;53.242;10.438;2023-09-12T00:59:47;18.73;;;11.83;;
18505;SDS011;9382;53.242;10.438;2023-09-12T01:02:14;20.67;;;13.97;;
18505;SDS011;9382;53.242;10.438;2023-09-12T01:04:41;18.67;;;12.87;;
18505;SDS011;9382;53.242;10.438;2023-09-12T01:07:10;22.43;;;13.97;;
18505;SDS011;9382;53.242;10.438;2023-09-12T01:09:37;20.30;;;13.90;;
18505;SDS011;9382;53.242;10.438;2023-09-12T01:12:08;20.77;;;14.47;;
18505;SDS011;9382;53.242;10.438;2023-09-12T01:14:39;22.63;;;14.33;;
18505;SDS011;9382;53.242;10.438;2023-09-12T01:17:06;26.00;;;15.50;;
18505;SDS011;9382;53.242;10.438;2023-09-12T01:19:33;24.90;;;15.43;;
18505;SDS011;9382;53.242;10.438;2023-09-12T01:22:07;21.67;;;14.10;;
18505;SDS011;9382;53.242;10.438;2023-09-12T01:28:09;20.30;;;13.30;;
18505;SDS011;9382;53.242;10.438;2023-09-12T01:30:39;21.63;;;14.40;;
18505;SDS011;9382;53.242;10.438;2023-09-12T01:33:09;23.20;;;14.27;;
18505;SDS011;9382;53.242;10.438;2023-09-12T01:35:37;23.60;;;14.37;;
18505;SDS011;9382;53.242;10.438;2023-09-12T01:38:04;22.17;;;14.30;;
18505;SDS011;9382;53.242;10.438;2023-09-12T01:40:34;22.90;;;15.03;;
18505;SDS011;9382;53.242;10.438;2023-09-12T01:43:05;26.17;;;15.03;;
18505;SDS011;9382;53.242;10.438;2023-09-12T01:45:34;24.17;;;16.20;;
18505;SDS011;9382;53.242;10.438;2023-09-12T01:48:02;22.47;;;13.87;;
18505;SDS011;9382;53.242;10.438;2023-09-12T01:50:31;30.73;;;17.43;;
18505;SDS011;9382;53.242;10.438;2023-09-12T01:52:59;23.17;;;14.57;;
18505;SDS011;9382;53.242;10.438;2023-09-12T01:55:26;31.03;;;18.57;;
18505;SDS011;9382;53.242;10.438;2023-09-12T01:57:53;26.40;;;16.30;;
18505;SDS011;9382;53.242;10.438;2023-09-12T02:00:22;22.07;;;14.20;;
18505;SDS011;9382;53.242;10.438;2023-09-12T02:02:50;24.07;;;15.33;;
18505;SDS011;9382;53.242;10.438;2023-09-12T02:05:17;23.83;;;13.87;;
18505;SDS011;9382;53.242;10.438;2023-09-12T02:07:46;24.90;;;14.83;;
18505;SDS011;9382;53.242;10.438;2023-09-12T02:10:13;28.07;;;16.47;;
18505;SDS011;9382;53.242;10.438;2023-09-12T02:12:40;32.83;;;19.00;;
18505;SDS011;9382;53.242;10.438;2023-09-12T02:15:07;24.30;;;15.83;;
18505;SDS011;9382;53.242;10.438;2023-09-12T02:17:35;29.63;;;17.50;;
18505;SDS011;9382;53.242;10.438;2023-09-12T02:20:05;29.37;;;17.00;;
18505;SDS011;9382;53.242;10.438;2023-09-12T02:22:33;27.83;;;16.33;;
18505;SDS011;9382;53.242;10.438;2023-09-12T02:25:00;27.60;;;16.63;;
18505;SDS011;9382;53.242;10.438;2023-09-12T02:27:29;34.03;;;20.33;;
18505;SDS011;9382;53.242;10.438;2023-09-12T02:29:56;34.00;;;19.70;;
18505;SDS011;9382;53.242;10.438;2023-09-12T02:32:23;28.00;;;16.20;;
18505;SDS011;9382;53.242;10.438;2023-09-12T02:34:50;34.83;;;19.57;;
18505;SDS011;9382;53.242;10.438;2023-09-12T02:37:19;43.47;;;23.97;;
18505;SDS011;9382;53.242;10.438;2023-09-12T02:39:46;35.93;;;20.93;;
18505;SDS011;9382;53.242;10.438;2023-09-12T02:42:13;35.10;;;20.23;;
18505;SDS011;9382;53.242;10.438;2023-09-12T02:44:40;32.63;;;19.23;;
18505;SDS011;9382;53.242;10.438;2023-09-12T02:47:06;34.80;;;19.13;;
18505;SDS011;9382;53.242;10.438;2023-09-12T02:49:33;32.17;;;18.67;;
18505;SDS011;9382;53.242;10.438;2023-09-12T02:52:00;36.97;;;20.87;;
18505;SDS011;9382;53.242;10.438;2023-09-12T02:54:28;42.90;;;24.20;;
18505;SDS011;9382;53.242;10.438;2023-09-12T02:56:55;38.17;;;21.30;;
18505;SDS011;9382;53.242;10.438;2023-09-12T02:59:22;36.67;;;22.40;;
18505;SDS011;9382;53.242;10.438;2023-09-12T03:01:48;34.33;;;21.43;;
18505;SDS011;9382;53.242;10.438;2023-09-12T03:04:15;36.00;;;20.03;;
18505;SDS011;9382;53.242;10.438;2023-09-12T03:06:42;32.83;;;21.23;;
18505;SDS011;9382;53.242;10.438;2023-09-12T03:09:09;38.53;;;21.17;;
18505;SDS011;9382;53.242;10.438;2023-09-12T03:11:38;37.83;;;21.50;;
18505;SDS011;9382;53.242;10.438;2023-09-12T03:14:04;32.47;;;20.10;;
18505;SDS011;9382;53.242;10.438;2023-09-12T03:16:31;36.47;;;22.43;;
18505;SDS011;9382;53.242;10.438;2023-09-12T03:18:58;33.27;;;19.30;;
18505;SDS011;9382;53.242;10.438;2023-09-12T03:21:26;32.67;;;19.23;;
18505;SDS011;9382;53.242;10.438;2023-09-12T03:23:53;38.33;;;22.23;;
18505;SDS011;9382;53.242;10.438;2023-09-12T03:26:19;40.00;;;22.87;;
18505;SDS011;9382;53.242;10.438;2023-09-12T03:28:48;42.47;;;22.70;;
18505;SDS011;9382;53.242;10.438;2023-09-12T03:31:16;43.27;;;22.20;;
18505;SDS011;9382;53.242;10.438;2023-09-12T03:33:43;36.47;;;20.47;;
18505;SDS011;9382;53.242;10.438;2023-09-12T03:36:14;40.43;;;23.33;;
18505;SDS011;9382;53.242;10.438;2023-09-12T03:38:41;34.77;;;20.10;;
18505;SDS011;9382;53.242;10.438;2023-09-12T03:41:08;39.67;;;22.03;;
18505;SDS011;9382;53.242;10.438;2023-09-12T03:43:36;40.50;;;22.70;;
18505;SDS011;9382;53.242;10.438;2023-09-12T03:46:04;41.40;;;23.17;;
18505;SDS011;9382;53.242;10.438;2023-09-12T03:48:31;35.53;;;21.40;;
18505;SDS011;9382;53.242;10.438;2023-09-12T03:50:59;39.97;;;23.90;;
18505;SDS011;9382;53.242;10.438;2023-09-12T03:53:26;34.57;;;20.63;;
18505;SDS011;9382;53.242;10.438;2023-09-12T03:55:53;31.67;;;17.57;;
18505;SDS011;9382;53.242;10.438;2023-09-12T03:58:20;31.30;;;18.90;;
18505;SDS011;9382;53.242;10.438;2023-09-12T04:00:47;32.70;;;18.37;;
18505;SDS011;9382;53.242;10.438;2023-09-12T04:03:16;37.20;;;22.20;;
18505;SDS011;9382;53.242;10.438;2023-09-12T04:05:43;36.73;;;20.80;;
18505;SDS011;9382;53.242;10.438;2023-09-12T04:08:12;37.83;;;22.87;;
18505;SDS011;9382;53.242;10.438;2023-09-12T04:10:39;32.27;;;20.10;;
18505;SDS011;9382;53.242;10.438;2023-09-12T04:13:06;32.00;;;19.73;;
18505;SDS011;9382;53.242;10.438;2023-09-12T04:15:32;30.73;;;18.43;;
18505;SDS011;9382;53.242;10.438;2023-09-12T04:17:59;31.13;;;18.67;;
18505;SDS011;9382;53.242;10.438;2023-09-12T04:20:27;27.97;;;17.40;;
18505;SDS011;9382;53.242;10.438;2023-09-12T04:22:54;35.83;;;20.70;;
18505;SDS011;9382;53.242;10.438;2023-09-12T04:25:21;27.70;;;16.87;;
18505;SDS011;9382;53.242;10.438;2023-09-12T04:27:48;32.07;;;20.03;;
18505;SDS011;9382;53.242;10.438;2023-09-12T04:30:14;35.93;;;21.93;;
18505;SDS011;9382;53.242;10.438;2023-09-12T04:32:41;30.97;;;19.20;;
18505;SDS011;9382;53.242;10.438;2023-09-12T04:35:08;45.13;;;24.63;;
18505;SDS011;9382;53.242;10.438;2023-09-12T04:37:36;40.50;;;23.13;;
18505;SDS011;9382;53.242;10.438;2023-09-12T04:40:03;37.67;;;22.60;;
18505;SDS011;9382;53.242;10.438;2023-09-12T04:42:33;42.80;;;23.63;;
18505;SDS011;9382;53.242;10.438;2023-09-12T04:45:00;39.00;;;22.67;;
18505;SDS011;9382;53.242;10.438;2023-09-12T04:47:28;46.57;;;25.80;;
18505;SDS011;9382;53.242;10.438;2023-09-12T04:49:55;46.30;;;25.83;;
18505;SDS011;9382;53.242;10.438;2023-09-12T04:52:22;43.93;;;24.53;;
18505;SDS011;9382;53.242;10.438;2023-09-12T04:54:50;39.37;;;22.90;;
18505;SDS011;9382;53.242;10.438;2023-09-12T04:57:17;41.87;;;23.70;;
18505;SDS011;9382;53.242;10.438;2023-09-12T04:59:43;42.83;;;25.33;;
18505;SDS011;9382;53.242;10.438;2023-09-12T05:02:10;42.87;;;24.53;;
18505;SDS011;9382;53.242;10.438;2023-09-12T05:04:37;44.90;;;25.83;;
18505;SDS011;9382;53.242;10.438;2023-09-12T05:07:04;43.77;;;23.40;;
18505;SDS011;9382;53.242;10.438;2023-09-12T05:09:30;44.73;;;23.60;;
18505;SDS011;9382;53.242;10.438;2023-09-12T05:11:59;42.37;;;24.23;;
18505;SDS011;9382;53.242;10.438;2023-09-12T05:14:25;39.77;;;23.47;;
18505;SDS011;9382;53.242;10.438;2023-09-12T05:16:52;37.47;;;21.53;;
18505;SDS011;9382;53.242;10.438;2023-09-12T05:19:19;36.07;;;21.87;;
18505;SDS011;9382;53.242;10.438;2023-09-12T05:21:46;39.17;;;21.43;;
18505;SDS011;9382;53.242;10.438;2023-09-12T05:24:12;37.00;;;21.57;;
18505;SDS011;9382;53.242;10.438;2023-09-12T05:26:39;33.57;;;19.10;;
18505;SDS011;9382;53.242;10.438;2023-09-12T05:29:07;34.93;;;19.93;;
18505;SDS011;9382;53.242;10.438;2023-09-12T05:31:34;33.80;;;19.97;;
18505;SDS011;9382;53.242;10.438;2023-09-12T05:34:01;29.73;;;18.43;;
18505;SDS011;9382;53.242;10.438;2023-09-12T05:36:28;35.40;;;20.83;;
18505;SDS011;9382;53.242;10.438;2023-09-12T05:38:55;34.40;;;19.77;;
18505;SDS011;9382;53.242;10.438;2023-09-12T05:41:22;41.00;;;24.37;;
18505;SDS011;9382;53.242;10.438;2023-09-12T05:43:48;41.53;;;23.40;;
18505;SDS011;9382;53.242;10.438;2023-09-12T05:46:16;36.70;;;21.57;;
18505;SDS011;9382;53.242;10.438;2023-09-12T05:48:43;40.43;;;23.03;;
18505;SDS011;9382;53.242;10.438;2023-09-12T05:51:12;41.30;;;23.13;;
18505;SDS011;9382;53.242;10.438;2023-09-12T05:53:39;38.17;;;21.20;;
18505;SDS011;9382;53.242;10.438;2023-09-12T05:56:05;40.37;;;22.33;;
18505;SDS011;9382;53.242;10.438;2023-09-12T05:58:32;37.80;;;22.70;;
18505;SDS011;9382;53.242;10.438;2023-09-12T06:00:59;42.70;;;23.30;;
18505;SDS011;9382;53.242;10.438;2023-09-12T06:03:27;43.93;;;24.63;;
18505;SDS011;9382;53.242;10.438;2023-09-12T06:05:54;39.20;;;22.40;;
18505;SDS011;9382;53.242;10.438;2023-09-12T06:08:21;40.67;;;22.00;;
18505;SDS011;9382;53.242;10.438;2023-09-12T06:10:49;34.53;;;19.53;;
18505;SDS011;9382;53.242;10.438;2023-09-12T06:13:18;38.23;;;22.70;;
18505;SDS011;9382;53.242;10.438;2023-09-12T06:15:45;44.87;;;23.73;;
18505;SDS011;9382;53.242;10.438;2023-09-12T06:18:12;40.67;;;22.93;;
18505;SDS011;9382;53.242;10.438;2023-09-12T06:20:40;41.40;;;23.67;;
18505;SDS011;9382;53.242;10.438;2023-09-12T06:23:07;38.63;;;21.73;;
18505;SDS011;9382;53.242;10.438;2023-09-12T06:25:35;33.70;;;21.57;;
18505;SDS011;9382;53.242;10.438;2023-09-12T06:28:05;44.10;;;24.20;;
18505;SDS011;9382;53.242;10.438;2023-09-12T06:30:34;44.03;;;24.50;;
18505;SDS011;9382;53.242;10.438;2023-09-12T06:33:01;41.07;;;23.13;;
18505;SDS011;9382;53.242;10.438;2023-09-12T06:35:28;35.87;;;22.30;;
18505;SDS011;9382;53.242;10.438;2023-09-12T06:37:56;39.67;;;22.10;;
18505;SDS011;9382;53.242;10.438;2023-09-12T06:40:23;39.13;;;22.57;;
18505;SDS011;9382;53.242;10.438;2023-09-12T06:42:50;41.47;;;23.23;;
18505;SDS011;9382;53.242;10.438;2023-09-12T06:45:17;37.90;;;22.43;;
18505;SDS011;9382;53.242;10.438;2023-09-12T06:47:43;38.67;;;22.27;;
18505;SDS011;9382;53.242;10.438;2023-09-12T06:50:10;42.10;;;22.43;;
18505;SDS011;9382;53.242;10.438;2023-09-12T06:52:37;38.17;;;21.27;;
18505;SDS011;9382;53.242;10.438;2023-09-12T06:55:05;38.63;;;22.60;;
18505;SDS011;9382;53.242;10.438;2023-09-12T06:57:33;35.87;;;21.77;;
18505;SDS011;9382;53.242;10.438;2023-09-12T07:00:00;38.43;;;21.80;;
18505;SDS011;9382;53.242;10.438;2023-09-12T07:02:32;38.93;;;21.57;;
18505;SDS011;9382;53.242;10.438;2023-09-12T07:04:59;36.80;;;21.70;;
18505;SDS011;9382;53.242;10.438;2023-09-12T07:07:25;34.83;;;21.57;;
18505;SDS011;9382;53.242;10.438;2023-09-12T07:09:52;36.37;;;21.40;;
18505;SDS011;9382;53.242;10.438;2023-09-12T07:12:20;35.93;;;20.90;;
18505;SDS011;9382;53.242;10.438;2023-09-12T07:14:47;36.23;;;20.90;;
18505;SDS011;9382;53.242;10.438;2023-09-12T07:17:16;38.77;;;21.87;;
18505;SDS011;9382;53.242;10.438;2023-09-12T07:19:43;32.80;;;19.47;;
18505;SDS011;9382;53.242;10.438;2023-09-12T07:22:10;38.30;;;22.17;;
18505;SDS011;9382;53.242;10.438;2023-09-12T07:24:37;36.17;;;20.20;;
18505;SDS011;9382;53.242;10.438;2023-09-12T07:27:04;42.70;;;22.13;;
18505;SDS011;9382;53.242;10.438;2023-09-12T07:29:32;39.40;;;22.07;;
18505;SDS011;9382;53.242;10.438;2023-09-12T07:31:59;39.20;;;21.80;;
18505;SDS011;9382;53.242;10.438;2023-09-12T07:34:26;35.33;;;21.10;;
18505;SDS011;9382;53.242;10.438;2023-09-12T07:36:52;40.50;;;21.80;;
18505;SDS011;9382;53.242;10.438;2023-09-12T07:39:19;35.43;;;20.27;;
18505;SDS011;9382;53.242;10.438;2023-09-12T07:41:46;38.10;;;20.97;;
18505;SDS011;9382;53.242;10.438;2023-09-12T07:44:13;38.77;;;22.73;;
18505;SDS011;9382;53.242;10.438;2023-09-12T07:46:43;36.87;;;20.57;;
18505;SDS011;9382;53.242;10.438;2023-09-12T07:49:10;40.30;;;22.07;;
18505;SDS011;9382;53.242;10.438;2023-09-12T07:51:36;39.40;;;21.53;;
18505;SDS011;9382;53.242;10.438;2023-09-12T07:54:03;42.53;;;22.03;;
18505;SDS011;9382;53.242;10.438;2023-09-12T07:56:30;38.30;;;21.27;;
18505;SDS011;9382;53.242;10.438;2023-09-12T07:58:57;40.67;;;23.20;;
18505;SDS011;9382;53.242;10.438;2023-09-12T08:01:24;42.43;;;22.20;;
18505;SDS011;9382;53.242;10.438;2023-09-12T08:03:53;40.83;;;22.73;;
18505;SDS011;9382;53.242;10.438;2023-09-12T08:06:20;36.40;;;20.87;;
18505;SDS011;9382;53.242;10.438;2023-09-12T08:08:49;39.47;;;22.20;;
18505;SDS011;9382;53.242;10.438;2023-09-12T08:11:15;43.87;;;22.50;;
18505;SDS011;9382;53.242;10.438;2023-09-12T08:13:42;41.80;;;22.57;;
18505;SDS011;9382;53.242;10.438;2023-09-12T08:16:09;40.03;;;21.80;;
18505;SDS011;9382;53.242;10.438;2023-09-12T08:18:36;41.63;;;22.20;;
18505;SDS011;9382;53.242;10.438;2023-09-12T08:21:04;38.73;;;22.10;;
18505;SDS011;9382;53.242;10.438;2023-09-12T08:23:31;44.97;;;23.97;;
18505;SDS011;9382;53.242;10.438;2023-09-12T08:25:58;40.93;;;23.00;;
18505;SDS011;9382;53.242;10.438;2023-09-12T08:28:25;45.07;;;23.57;;
18505;SDS011;9382;53.242;10.438;2023-09-12T08:30:52;46.13;;;23.63;;
18505;SDS011;9382;53.242;10.438;2023-09-12T08:33:19;46.93;;;22.73;;
18505;SDS011;9382;53.242;10.438;2023-09-12T08:35:46;43.87;;;23.10;;
18505;SDS011;9382;53.242;10.438;2023-09-12T08:38:14;42.37;;;23.20;;
18505;SDS011;9382;53.242;10.438;2023-09-12T08:40:41;44.13;;;23.10;;
18505;SDS011;9382;53.242;10.438;2023-09-12T08:43:14;42.97;;;23.40;;
18505;SDS011;9382;53.242;10.438;2023-09-12T08:45:41;46.40;;;23.93;;
18505;SDS011;9382;53.242;10.438;2023-09-12T08:48:09;46.47;;;24.57;;
18505;SDS011;9382;53.242;10.438;2023-09-12T08:50:37;42.00;;;22.30;;
18505;SDS011;9382;53.242;10.438;2023-09-12T08:53:04;42.43;;;22.23;;
18505;SDS011;9382;53.242;10.438;2023-09-12T08:55:33;37.80;;;20.90;;
18505;SDS011;9382;53.242;10.438;2023-09-12T08:58:02;35.70;;;20.37;;
18505;SDS011;9382;53.242;10.438;2023-09-12T09:00:30;32.40;;;18.83;;
18505;SDS011;9382;53.242;10.438;2023-09-12T09:02:58;32.73;;;19.10;;
18505;SDS011;9382;53.242;10.438;2023-09-12T09:05:25;30.07;;;17.60;;
18505;SDS011;9382;53.242;10.438;2023-09-12T09:07:55;26.70;;;16.50;;
18505;SDS011;9382;53.242;10.438;2023-09-12T09:10:23;22.03;;;14.30;;
18505;SDS011;9382;53.242;10.438;2023-09-12T09:12:52;21.03;;;12.80;;
18505;SDS011;9382;53.242;10.438;2023-09-12T09:15:19;18.73;;;12.80;;
18505;SDS011;9382;53.242;10.438;2023-09-12T09:17:47;19.17;;;13.30;;
18505;SDS011;9382;53.242;10.438;2023-09-12T09:20:21;21.37;;;12.33;;
18505;SDS011;9382;53.242;10.438;2023-09-12T09:22:55;19.47;;;12.37;;
18505;SDS011;9382;53.242;10.438;2023-09-12T09:25:23;17.90;;;12.43;;
18505;SDS011;9382;53.242;10.438;2023-09-12T09:27:51;19.13;;;11.77;;
18505;SDS011;9382;53.242;10.438;2023-09-12T09:30:24;17.57;;;11.30;;
18505;SDS011;9382;53.242;10.438;2023-09-12T09:33:06;16.93;;;11.40;;
18505;SDS011;9382;53.242;10.438;2023-09-12T09:35:33;18.10;;;11.30;;
18505;SDS011;9382;53.242;10.438;2023-09-12T09:38:00;16.93;;;10.90;;
18505;SDS011;9382;53.242;10.438;2023-09-12T09:40:27;16.07;;;11.00;;
18505;SDS011;9382;53.242;10.438;2023-09-12T09:42:55;17.70;;;11.63;;
18505;SDS011;9382;53.242;10.438;2023-09-12T09:45:25;18.30;;;12.37;;
18505;SDS011;9382;53.242;10.438;2023-09-12T09:47:51;19.17;;;11.77;;
18505;SDS011;9382;53.242;10.438;2023-09-12T09:50:18;16.90;;;11.50;;
18505;SDS011;9382;53.242;10.438;2023-09-12T09:52:45;19.10;;;12.33;;
18505;SDS011;9382;53.242;10.438;2023-09-12T09:55:13;19.33;;;12.77;;
18505;SDS011;9382;53.242;10.438;2023-09-12T09:57:40;20.53;;;12.53;;
18505;SDS011;9382;53.242;10.438;2023-09-12T10:00:09;17.90;;;11.57;;
18505;SDS011;9382;53.242;10.438;2023-09-12T10:02:40;15.80;;;10.77;;
18505;SDS011;9382;53.242;10.438;2023-09-12T10:05:08;15.97;;;11.07;;
18505;SDS011;9382;53.242;10.438;2023-09-12T10:07:37;14.63;;;10.23;;
18505;SDS011;9382;53.242;10.438;2023-09-12T10:10:04;15.50;;;10.27;;
18505;SDS011;9382;53.242;10.438;2023-09-12T10:12:31;17.37;;;10.50;;
18505;SDS011;9382;53.242;10.438;2023-09-12T10:15:01;16.93;;;10.40;;
18505;SDS011;9382;53.242;10.438;2023-09-12T10:17:31;13.00;;;9.80;;
18505;SDS011;9382;53.242;10.438;2023-09-12T10:20:03;14.53;;;10.20;;
18505;SDS011;9382;53.242;10.438;2023-09-12T10:22:37;13.23;;;10.20;;
18505;SDS011;9382;53.242;10.438;2023-09-12T10:25:09;15.43;;;10.23;;
18505;SDS011;9382;53.242;10.438;2023-09-12T10:27:37;14.80;;;10.23;;
18505;SDS011;9382;53.242;10.438;2023-09-12T10:30:05;14.93;;;10.73;;
18505;SDS011;9382;53.242;10.438;2023-09-12T10:32:35;16.27;;;11.47;;
18505;SDS011;9382;53.242;10.438;2023-09-12T10:35:03;13.23;;;9.33;;
18505;SDS011;9382;53.242;10.438;2023-09-12T10:37:32;13.67;;;9.17;;
18505;SDS011;9382;53.242;10.438;2023-09-12T10:40:04;12.77;;;9.60;;
18505;SDS011;9382;53.242;10.438;2023-09-12T10:42:34;11.60;;;8.73;;
18505;SDS011;9382;53.242;10.438;2023-09-12T10:45:02;11.90;;;9.00;;
18505;SDS011;9382;53.242;10.438;2023-09-12T10:47:37;11.93;;;8.93;;
18505;SDS011;9382;53.242;10.438;2023-09-12T10:50:05;13.33;;;9.77;;
18505;SDS011;9382;53.242;10.438;2023-09-12T10:52:33;10.73;;;8.47;;
18505;SDS011;9382;53.242;10.438;2023-09-12T10:55:06;13.73;;;9.00;;
18505;SDS011;9382;53.242;10.438;2023-09-12T10:58:00;11.53;;;9.10;;
18505;SDS011;9382;53.242;10.438;2023-09-12T11:00:29;13.53;;;10.03;;
18505;SDS011;9382;53.242;10.438;2023-09-12T11:03:01;14.20;;;10.13;;
18505;SDS011;9382;53.242;10.438;2023-09-12T11:06:03;14.40;;;9.60;;
18505;SDS011;9382;53.242;10.438;2023-09-12T11:08:35;14.30;;;10.33;;
18505;SDS011;9382;53.242;10.438;2023-09-12T11:14:02;15.67;;;10.37;;
18505;SDS011;9382;53.242;10.438;2023-09-12T11:16:31;14.97;;;10.17;;
18505;SDS011;9382;53.242;10.438;2023-09-12T11:19:18;14.77;;;10.37;;
18505;SDS011;9382;53.242;10.438;2023-09-12T11:21:49;14.63;;;9.97;;
18505;SDS011;9382;53.242;10.438;2023-09-12T11:24:21;15.17;;;9.70;;
18505;SDS011;9382;53.242;10.438;2023-09-12T11:26:55;11.67;;;9.07;;
18505;SDS011;9382;53.242;10.438;2023-09-12T11:29:34;13.60;;;9.30;;
18505;SDS011;9382;53.242;10.438;2023-09-12T11:32:09;14.90;;;9.97;;
18505;SDS011;9382;53.242;10.438;2023-09-12T11:34:47;15.87;;;9.93;;
18505;SDS011;9382;53.242;10.438;2023-09-12T11:37:23;15.03;;;9.77;;
18505;SDS011;9382;53.242;10.438;2023-09-12T11:39:53;13.57;;;9.47;;
18505;SDS011;9382;53.242;10.438;2023-09-12T11:42:24;12.10;;;8.50;;
18505;SDS011;9382;53.242;10.438;2023-09-12T11:45:22;13.07;;;8.47;;
18505;SDS011;9382;53.242;10.438;2023-09-12T11:47:58;13.50;;;9.00;;
18505;SDS011;9382;53.242;10.438;2023-09-12T11:53:38;12.33;;;8.90;;
18505;SDS011;9382;53.242;10.438;2023-09-12T11:56:26;11.90;;;8.03;;
18505;SDS011;9382;53.242;10.438;2023-09-12T11:59:02;11.43;;;8.23;;
18505;SDS011;9382;53.242;10.438;2023-09-12T12:01:48;10.23;;;7.27;;
18505;SDS011;9382;53.242;10.438;2023-09-12T12:04:35;10.47;;;7.13;;
18505;SDS011;9382;53.242;10.438;2023-09-12T12:07:03;9.83;;;7.53;;
18505;SDS011;9382;53.242;10.438;2023-09-12T12:09:33;12.37;;;8.10;;
18505;SDS011;9382;53.242;10.438;2023-09-12T12:12:08;10.27;;;8.17;;
18505;SDS011;9382;53.242;10.438;2023-09-12T12:14:41;12.43;;;7.80;;
18505;SDS011;9382;53.242;10.438;2023-09-12T12:17:10;11.07;;;8.27;;
18505;SDS011;9382;53.242;10.438;2023-09-12T12:19:37;9.73;;;8.13;;
18505;SDS011;9382;53.242;10.438;2023-09-12T12:22:05;12.10;;;8.40;;
18505;SDS011;9382;53.242;10.438;2023-09-12T12:24:38;9.57;;;7.70;;
18505;SDS011;9382;53.242;10.438;2023-09-12T12:27:09;11.20;;;7.97;;
18505;SDS011;9382;53.242;10.438;2023-09-12T12:29:38;12.90;;;8.53;;
18505;SDS011;9382;53.242;10.438;2023-09-12T12:32:05;11.43;;;8.30;;
18505;SDS011;9382;53.242;10.438;2023-09-12T12:34:34;13.47;;;8.50;;
18505;SDS011;9382;53.242;10.438;2023-09-12T12:37:04;10.40;;;7.60;;
18505;SDS011;9382;53.242;10.438;2023-09-12T12:39:39;13.83;;;8.63;;
18505;SDS011;9382;53.242;10.438;2023-09-12T12:42:09;10.30;;;7.97;;
18505;SDS011;9382;53.242;10.438;2023-09-12T12:44:54;10.73;;;7.70;;
18505;SDS011;9382;53.242;10.438;2023-09-12T12:47:22;11.20;;;7.70;;
18505;SDS011;9382;53.242;10.438;2023-09-12T12:49:56;10.50;;;7.90;;
18505;SDS011;9382;53.242;10.438;2023-09-12T12:52:26;10.27;;;7.60;;
18505;SDS011;9382;53.242;10.438;2023-09-12T13:01:32;9.97;;;7.63;;
18505;SDS011;9382;53.242;10.438;2023-09-12T13:04:07;9.90;;;6.97;;
18505;SDS011;9382;53.242;10.438;2023-09-12T13:06:40;8.83;;;6.77;;
18505;SDS011;9382;53.242;10.438;2023-09-12T13:09:23;8.90;;;6.87;;
18505;SDS011;9382;53.242;10.438;2023-09-12T13:11:51;8.93;;;7.07;;
18505;SDS011;9382;53.242;10.438;2023-09-12T13:14:18;8.57;;;6.83;;
18505;SDS011;9382;53.242;10.438;2023-09-12T13:26:52;8.47;;;6.73;;
18505;SDS011;9382;53.242;10.438;2023-09-12T13:30:04;7.73;;;6.17;;
18505;SDS011;9382;53.242;10.438;2023-09-12T13:33:10;9.93;;;6.50;;
18505;SDS011;9382;53.242;10.438;2023-09-12T13:36:00;10.07;;;6.80;;
18505;SDS011;9382;53.242;10.438;2023-09-12T13:39:54;10.73;;;7.20;;
18505;SDS011;9382;53.242;10.438;2023-09-12T13:46:58;9.47;;;6.60;;
18505;SDS011;9382;53.242;10.438;2023-09-12T13:49:48;7.77;;;5.90;;
18505;SDS011;9382;53.242;10.438;2023-09-12T13:55:37;6.27;;;5.23;;
18505;SDS011;9382;53.242;10.438;2023-09-12T13:58:07;5.67;;;4.73;;
18505;SDS011;9382;53.242;10.438;2023-09-12T14:00:36;6.85;;;4.63;;
18505;SDS011;9382;53.242;10.438;2023-09-12T14:03:03;5.90;;;4.18;;
18505;SDS011;9382;53.242;10.438;2023-09-12T14:05:30;5.35;;;4.20;;
18505;SDS011;9382;53.242;10.438;2023-09-12T14:07:57;4.90;;;3.95;;
18505;SDS011;9382;53.242;10.438;2023-09-12T14:10:24;4.18;;;3.38;;
18505;SDS011;9382;53.242;10.438;2023-09-12T14:12:52;5.47;;;4.00;;
18505;SDS011;9382;53.242;10.438;2023-09-12T14:15:19;4.03;;;3.65;;
18505;SDS011;9382;53.242;10.438;2023-09-12T14:17:45;3.90;;;3.60;;
18505;SDS011;9382;53.242;10.438;2023-09-12T14:20:12;4.85;;;3.88;;
18505;SDS011;9382;53.242;10.438;2023-09-12T14:22:40;4.13;;;3.58;;
18505;SDS011;9382;53.242;10.438;2023-09-12T14:25:08;4.55;;;3.85;;
18505;SDS011;9382;53.242;10.438;2023-09-12T14:27:39;4.07;;;3.53;;
18505;SDS011;9382;53.242;10.438;2023-09-12T14:30:09;3.65;;;3.35;;
18505;SDS011;9382;53.242;10.438;2023-09-12T14:32:38;3.28;;;3.00;;
18505;SDS011;9382;53.242;10.438;2023-09-12T14:35:05;3.38;;;3.17;;
18505;SDS011;9382;53.242;10.438;2023-09-12T14:37:35;4.07;;;3.67;;
18505;SDS011;9382;53.242;10.438;2023-09-12T14:40:03;5.63;;;3.55;;
18505;SDS011;9382;53.242;10.438;2023-09-12T14:42:33;4.20;;;3.70;;
18505;SDS011;9382;53.242;10.438;2023-09-12T14:45:00;3.60;;;3.30;;
18505;SDS011;9382;53.242;10.438;2023-09-12T14:47:30;4.00;;;3.63;;
18505;SDS011;9382;53.242;10.438;2023-09-12T14:49:58;4.15;;;3.58;;
18505;SDS011;9382;53.242;10.438;2023-09-12T14:52:24;4.00;;;3.60;;
18505;SDS011;9382;53.242;10.438;2023-09-12T14:54:52;4.27;;;3.83;;
18505;SDS011;9382;53.242;10.438;2023-09-12T14:57:19;4.23;;;3.60;;
18505;SDS011;9382;53.242;10.438;2023-09-12T14:59:47;4.63;;;3.77;;
18505;SDS011;9382;53.242;10.438;2023-09-12T15:02:15;4.63;;;4.07;;
18505;SDS011;9382;53.242;10.438;2023-09-12T15:04:43;6.03;;;3.72;;
18505;SDS011;9382;53.242;10.438;2023-09-12T15:07:10;4.20;;;3.80;;
18505;SDS011;9382;53.242;10.438;2023-09-12T15:09:37;4.70;;;3.70;;
18505;SDS011;9382;53.242;10.438;2023-09-12T15:12:04;4.72;;;3.65;;